Terminal Aerodrome Forecast
Issued by NWS

Home | Current Version | Previous Version | Text Only | Print | Product List | Glossary On
Versions: 1 2 3 4 5 6 7 8 9 10 11 12 13 14 15 16 17 18 19 20 21 22 23 24 25 26 27 28 29 30 31 32 33 34 35 36 37 38 39
000
FTUS43 KDLH 180500
TAFBRD
TAF
KBRD 180533Z 1806/1906 04003KT 2SM BR OVC004
     FM180800 16002KT 1 1/2SM -DZ BR OVC003
      TEMPO 1808/1812 1/4SM -DZ FG VV001
     FM181200 18003KT 4SM BR VCSH OVC007
     FM181400 18008KT P6SM -RA OVC015
     FM181800 22006KT P6SM -RA VCTS OVC050CB PROB30 1819/1824 4SM
      -TSRA OVC050CB
     FM190000 30003KT P6SM BKN050=

USA.gov is the U.S. government's official web portal to all federal, state and local government web resources and services.